sensor_id;sensor_type;location;lat;lon;timestamp;temperature;humidity
10083;DHT22;5080;48.528;8.078;2023-06-10T00:00:29;21.90;99.90
10083;DHT22;5080;48.528;8.078;2023-06-10T00:02:57;22.00;99.90
10083;DHT22;5080;48.528;8.078;2023-06-10T00:05:24;22.10;99.90
10083;DHT22;5080;48.528;8.078;2023-06-10T00:07:55;22.10;99.90
10083;DHT22;5080;48.528;8.078;2023-06-10T00:10:22;22.00;99.90
10083;DHT22;5080;48.528;8.078;2023-06-10T00:12:50;22.00;99.90
10083;DHT22;5080;48.528;8.078;2023-06-10T00:15:17;21.90;99.90
10083;DHT22;5080;48.528;8.078;2023-06-10T00:17:45;21.90;99.90
10083;DHT22;5080;48.528;8.078;2023-06-10T00:20:12;21.80;99.90
10083;DHT22;5080;48.528;8.078;2023-06-10T00:22:39;21.70;99.90
10083;DHT22;5080;48.528;8.078;2023-06-10T00:25:09;21.70;99.90
10083;DHT22;5080;48.528;8.078;2023-06-10T00:27:36;21.50;99.90
10083;DHT22;5080;48.528;8.078;2023-06-10T00:30:03;21.50;99.90
10083;DHT22;5080;48.528;8.078;2023-06-10T00:32:32;21.30;99.90
10083;DHT22;5080;48.528;8.078;2023-06-10T00:35:00;21.20;99.90
10083;DHT22;5080;48.528;8.078;2023-06-10T00:37:27;21.00;99.90
10083;DHT22;5080;48.528;8.078;2023-06-10T00:39:54;21.00;99.90
10083;DHT22;5080;48.528;8.078;2023-06-10T00:42:21;20.90;99.90
10083;DHT22;5080;48.528;8.078;2023-06-10T00:44:49;20.90;99.90
10083;DHT22;5080;48.528;8.078;2023-06-10T00:47:16;20.80;99.90
10083;DHT22;5080;48.528;8.078;2023-06-10T00:49:44;20.70;99.90
10083;DHT22;5080;48.528;8.078;2023-06-10T00:52:14;20.60;99.90
10083;DHT22;5080;48.528;8.078;2023-06-10T00:54:41;20.50;99.90
10083;DHT22;5080;48.528;8.078;2023-06-10T00:57:08;20.70;99.90
10083;DHT22;5080;48.528;8.078;2023-06-10T00:59:35;20.70;99.90
10083;DHT22;5080;48.528;8.078;2023-06-10T01:02:03;20.70;99.90
10083;DHT22;5080;48.528;8.078;2023-06-10T01:04:30;20.60;99.90
10083;DHT22;5080;48.528;8.078;2023-06-10T01:07:05;20.50;99.90
10083;DHT22;5080;48.528;8.078;2023-06-10T01:09:41;20.50;99.90
10083;DHT22;5080;48.528;8.078;2023-06-10T01:12:20;20.50;99.90
10083;DHT22;5080;48.528;8.078;2023-06-10T01:14:51;20.40;99.90
10083;DHT22;5080;48.528;8.078;2023-06-10T01:17:18;20.40;99.90
10083;DHT22;5080;48.528;8.078;2023-06-10T01:19:53;20.40;99.90
10083;DHT22;5080;48.528;8.078;2023-06-10T01:22:23;20.30;99.90
10083;DHT22;5080;48.528;8.078;2023-06-10T01:24:51;20.20;99.90
10083;DHT22;5080;48.528;8.078;2023-06-10T01:27:21;20.10;99.90
10083;DHT22;5080;48.528;8.078;2023-06-10T01:29:53;20.10;99.90
10083;DHT22;5080;48.528;8.078;2023-06-10T01:32:26;19.90;99.90
10083;DHT22;5080;48.528;8.078;2023-06-10T01:34:56;19.90;99.90
10083;DHT22;5080;48.528;8.078;2023-06-10T01:37:26;19.80;99.90
10083;DHT22;5080;48.528;8.078;2023-06-10T01:39:55;19.70;99.90
10083;DHT22;5080;48.528;8.078;2023-06-10T01:42:23;19.70;99.90
10083;DHT22;5080;48.528;8.078;2023-06-10T01:44:51;19.60;99.90
10083;DHT22;5080;48.528;8.078;2023-06-10T01:47:17;19.40;99.90
10083;DHT22;5080;48.528;8.078;2023-06-10T01:49:45;19.40;99.90
10083;DHT22;5080;48.528;8.078;2023-06-10T01:52:12;19.30;99.90
10083;DHT22;5080;48.528;8.078;2023-06-10T01:54:40;19.30;99.90
10083;DHT22;5080;48.528;8.078;2023-06-10T01:57:07;19.30;99.90
10083;DHT22;5080;48.528;8.078;2023-06-10T01:59:34;19.30;99.90
10083;DHT22;5080;48.528;8.078;2023-06-10T02:02:02;19.20;99.90
10083;DHT22;5080;48.528;8.078;2023-06-10T02:04:29;19.20;99.90
10083;DHT22;5080;48.528;8.078;2023-06-10T02:06:56;19.30;99.90
10083;DHT22;5080;48.528;8.078;2023-06-10T02:09:22;19.20;99.90
10083;DHT22;5080;48.528;8.078;2023-06-10T02:11:51;19.20;99.90
10083;DHT22;5080;48.528;8.078;2023-06-10T02:14:18;19.20;99.90
10083;DHT22;5080;48.528;8.078;2023-06-10T02:16:44;19.20;99.90
10083;DHT22;5080;48.528;8.078;2023-06-10T02:19:12;19.20;99.90
10083;DHT22;5080;48.528;8.078;2023-06-10T02:21:39;19.20;99.90
10083;DHT22;5080;48.528;8.078;2023-06-10T02:24:06;19.10;99.90
10083;DHT22;5080;48.528;8.078;2023-06-10T02:26:33;19.10;99.90
10083;DHT22;5080;48.528;8.078;2023-06-10T02:29:01;19.00;99.90
10083;DHT22;5080;48.528;8.078;2023-06-10T02:31:29;19.00;99.90
10083;DHT22;5080;48.528;8.078;2023-06-10T02:33:55;19.00;99.90
10083;DHT22;5080;48.528;8.078;2023-06-10T02:36:22;19.00;99.90
10083;DHT22;5080;48.528;8.078;2023-06-10T02:38:49;19.10;99.90
10083;DHT22;5080;48.528;8.078;2023-06-10T02:41:16;19.00;99.90
10083;DHT22;5080;48.528;8.078;2023-06-10T02:43:43;19.10;99.90
10083;DHT22;5080;48.528;8.078;2023-06-10T02:46:11;19.10;99.90
10083;DHT22;5080;48.528;8.078;2023-06-10T02:48:42;19.10;99.90
10083;DHT22;5080;48.528;8.078;2023-06-10T02:51:09;19.10;99.90
10083;DHT22;5080;48.528;8.078;2023-06-10T02:53:36;19.00;99.90
10083;DHT22;5080;48.528;8.078;2023-06-10T02:56:03;19.10;99.90
10083;DHT22;5080;48.528;8.078;2023-06-10T02:58:30;19.00;99.90
10083;DHT22;5080;48.528;8.078;2023-06-10T03:00:57;19.00;99.90
10083;DHT22;5080;48.528;8.078;2023-06-10T03:03:26;19.00;99.90
10083;DHT22;5080;48.528;8.078;2023-06-10T03:05:53;18.90;99.90
10083;DHT22;5080;48.528;8.078;2023-06-10T03:08:19;18.90;99.90
10083;DHT22;5080;48.528;8.078;2023-06-10T03:10:46;18.90;99.90
10083;DHT22;5080;48.528;8.078;2023-06-10T03:13:13;18.90;99.90
10083;DHT22;5080;48.528;8.078;2023-06-10T03:15:41;18.90;99.90
10083;DHT22;5080;48.528;8.078;2023-06-10T03:18:08;19.00;99.90
10083;DHT22;5080;48.528;8.078;2023-06-10T03:20:36;19.00;99.90
10083;DHT22;5080;48.528;8.078;2023-06-10T03:23:04;19.00;99.90
10083;DHT22;5080;48.528;8.078;2023-06-10T03:25:31;19.00;99.90
10083;DHT22;5080;48.528;8.078;2023-06-10T03:27:58;18.90;99.90
10083;DHT22;5080;48.528;8.078;2023-06-10T03:30:27;18.80;99.90
10083;DHT22;5080;48.528;8.078;2023-06-10T03:32:54;18.90;99.90
10083;DHT22;5080;48.528;8.078;2023-06-10T03:35:20;18.90;99.90
10083;DHT22;5080;48.528;8.078;2023-06-10T03:37:49;18.90;99.90
10083;DHT22;5080;48.528;8.078;2023-06-10T03:40:16;18.90;99.90
10083;DHT22;5080;48.528;8.078;2023-06-10T03:42:43;18.90;99.90
10083;DHT22;5080;48.528;8.078;2023-06-10T03:45:10;18.80;99.90
10083;DHT22;5080;48.528;8.078;2023-06-10T03:47:38;18.80;99.90
10083;DHT22;5080;48.528;8.078;2023-06-10T03:50:06;18.80;99.90
10083;DHT22;5080;48.528;8.078;2023-06-10T03:52:33;18.80;99.90
10083;DHT22;5080;48.528;8.078;2023-06-10T03:55:02;18.70;99.90
10083;DHT22;5080;48.528;8.078;2023-06-10T03:57:29;18.80;99.90
10083;DHT22;5080;48.528;8.078;2023-06-10T03:59:55;18.70;99.90
10083;DHT22;5080;48.528;8.078;2023-06-10T04:02:22;18.60;99.90
10083;DHT22;5080;48.528;8.078;2023-06-10T04:04:49;18.60;99.90
10083;DHT22;5080;48.528;8.078;2023-06-10T04:07:17;18.60;99.90
10083;DHT22;5080;48.528;8.078;2023-06-10T04:09:45;18.60;99.90
10083;DHT22;5080;48.528;8.078;2023-06-10T04:12:14;18.70;99.90
10083;DHT22;5080;48.528;8.078;2023-06-10T04:14:42;18.80;99.90
10083;DHT22;5080;48.528;8.078;2023-06-10T04:17:09;18.80;99.90
10083;DHT22;5080;48.528;8.078;2023-06-10T04:19:36;18.90;99.90
10083;DHT22;5080;48.528;8.078;2023-06-10T04:22:03;18.90;99.90
10083;DHT22;5080;48.528;8.078;2023-06-10T04:24:30;18.80;99.90
10083;DHT22;5080;48.528;8.078;2023-06-10T04:26:57;18.70;99.90
10083;DHT22;5080;48.528;8.078;2023-06-10T04:29:25;18.70;99.90
10083;DHT22;5080;48.528;8.078;2023-06-10T04:31:52;18.70;99.90
10083;DHT22;5080;48.528;8.078;2023-06-10T04:34:19;18.60;99.90
10083;DHT22;5080;48.528;8.078;2023-06-10T04:36:46;18.60;99.90
10083;DHT22;5080;48.528;8.078;2023-06-10T04:39:13;18.60;99.90
10083;DHT22;5080;48.528;8.078;2023-06-10T04:41:42;18.50;99.90
10083;DHT22;5080;48.528;8.078;2023-06-10T04:44:09;18.50;99.90
10083;DHT22;5080;48.528;8.078;2023-06-10T04:46:37;18.50;99.90
10083;DHT22;5080;48.528;8.078;2023-06-10T04:49:04;18.50;99.90
10083;DHT22;5080;48.528;8.078;2023-06-10T04:51:31;18.60;99.90
10083;DHT22;5080;48.528;8.078;2023-06-10T04:53:58;18.50;99.90
10083;DHT22;5080;48.528;8.078;2023-06-10T04:56:28;18.50;99.90
10083;DHT22;5080;48.528;8.078;2023-06-10T04:58:55;18.50;99.90
10083;DHT22;5080;48.528;8.078;2023-06-10T05:01:23;18.50;99.90
10083;DHT22;5080;48.528;8.078;2023-06-10T05:03:52;18.60;99.90
10083;DHT22;5080;48.528;8.078;2023-06-10T05:06:18;18.50;99.90
10083;DHT22;5080;48.528;8.078;2023-06-10T05:08:45;18.70;99.90
10083;DHT22;5080;48.528;8.078;2023-06-10T05:11:12;18.90;99.90
10083;DHT22;5080;48.528;8.078;2023-06-10T05:13:39;19.20;99.90
10083;DHT22;5080;48.528;8.078;2023-06-10T05:16:06;19.40;99.90
10083;DHT22;5080;48.528;8.078;2023-06-10T05:18:33;19.50;99.90
10083;DHT22;5080;48.528;8.078;2023-06-10T05:21:02;19.60;99.90
10083;DHT22;5080;48.528;8.078;2023-06-10T05:23:29;19.70;99.90
10083;DHT22;5080;48.528;8.078;2023-06-10T05:25:56;19.80;99.90
10083;DHT22;5080;48.528;8.078;2023-06-10T05:28:23;19.90;99.90
10083;DHT22;5080;48.528;8.078;2023-06-10T05:30:51;20.00;99.90
10083;DHT22;5080;48.528;8.078;2023-06-10T05:33:18;20.20;99.90
10083;DHT22;5080;48.528;8.078;2023-06-10T05:35:45;20.30;99.90
10083;DHT22;5080;48.528;8.078;2023-06-10T05:38:13;20.40;99.90
10083;DHT22;5080;48.528;8.078;2023-06-10T05:40:40;20.60;99.90
10083;DHT22;5080;48.528;8.078;2023-06-10T05:43:06;20.90;99.90
10083;DHT22;5080;48.528;8.078;2023-06-10T05:45:34;21.10;99.90
10083;DHT22;5080;48.528;8.078;2023-06-10T05:48:01;21.20;99.90
10083;DHT22;5080;48.528;8.078;2023-06-10T05:50:28;21.40;99.90
10083;DHT22;5080;48.528;8.078;2023-06-10T05:52:55;21.50;99.90
10083;DHT22;5080;48.528;8.078;2023-06-10T05:55:24;21.70;99.90
10083;DHT22;5080;48.528;8.078;2023-06-10T05:57:58;21.80;99.90
10083;DHT22;5080;48.528;8.078;2023-06-10T06:00:26;22.00;99.90
10083;DHT22;5080;48.528;8.078;2023-06-10T06:02:53;22.10;99.90
10083;DHT22;5080;48.528;8.078;2023-06-10T06:05:21;22.20;99.90
10083;DHT22;5080;48.528;8.078;2023-06-10T06:07:47;22.30;99.90
10083;DHT22;5080;48.528;8.078;2023-06-10T06:10:16;22.40;99.90
10083;DHT22;5080;48.528;8.078;2023-06-10T06:12:44;22.60;99.90
10083;DHT22;5080;48.528;8.078;2023-06-10T06:15:11;22.70;99.90
10083;DHT22;5080;48.528;8.078;2023-06-10T06:17:38;22.80;99.90
10083;DHT22;5080;48.528;8.078;2023-06-10T06:20:06;22.90;99.90
10083;DHT22;5080;48.528;8.078;2023-06-10T06:22:33;23.00;99.90
10083;DHT22;5080;48.528;8.078;2023-06-10T06:25:00;23.00;99.90
10083;DHT22;5080;48.528;8.078;2023-06-10T06:27:27;23.00;99.90
10083;DHT22;5080;48.528;8.078;2023-06-10T06:29:55;22.80;99.90
10083;DHT22;5080;48.528;8.078;2023-06-10T06:32:22;22.70;99.90
10083;DHT22;5080;48.528;8.078;2023-06-10T06:34:51;22.70;99.90
10083;DHT22;5080;48.528;8.078;2023-06-10T06:37:21;22.70;99.90
10083;DHT22;5080;48.528;8.078;2023-06-10T06:39:48;22.80;99.90
10083;DHT22;5080;48.528;8.078;2023-06-10T06:42:14;22.80;99.90
10083;DHT22;5080;48.528;8.078;2023-06-10T06:44:42;22.80;99.90
10083;DHT22;5080;48.528;8.078;2023-06-10T06:47:10;22.80;99.90
10083;DHT22;5080;48.528;8.078;2023-06-10T06:49:37;22.70;99.90
10083;DHT22;5080;48.528;8.078;2023-06-10T06:52:04;22.70;99.90
10083;DHT22;5080;48.528;8.078;2023-06-10T06:54:31;22.70;99.90
10083;DHT22;5080;48.528;8.078;2023-06-10T06:56:58;22.80;99.90
10083;DHT22;5080;48.528;8.078;2023-06-10T06:59:25;22.70;99.90
10083;DHT22;5080;48.528;8.078;2023-06-10T07:01:52;22.80;99.90
10083;DHT22;5080;48.528;8.078;2023-06-10T07:04:20;23.00;99.90
10083;DHT22;5080;48.528;8.078;2023-06-10T07:06:48;22.90;99.90
10083;DHT22;5080;48.528;8.078;2023-06-10T07:09:15;23.00;99.90
10083;DHT22;5080;48.528;8.078;2023-06-10T07:11:42;23.10;99.90
10083;DHT22;5080;48.528;8.078;2023-06-10T07:14:09;23.10;99.90
10083;DHT22;5080;48.528;8.078;2023-06-10T07:16:36;22.90;99.90
10083;DHT22;5080;48.528;8.078;2023-06-10T07:19:03;23.00;99.90
10083;DHT22;5080;48.528;8.078;2023-06-10T07:21:31;23.20;99.90
10083;DHT22;5080;48.528;8.078;2023-06-10T07:23:59;23.40;99.90
10083;DHT22;5080;48.528;8.078;2023-06-10T07:26:26;23.50;99.90
10083;DHT22;5080;48.528;8.078;2023-06-10T07:28:53;23.60;99.90
10083;DHT22;5080;48.528;8.078;2023-06-10T07:31:20;23.70;99.90
10083;DHT22;5080;48.528;8.078;2023-06-10T07:33:47;23.80;99.90
10083;DHT22;5080;48.528;8.078;2023-06-10T07:36:14;23.90;99.90
10083;DHT22;5080;48.528;8.078;2023-06-10T07:38:42;24.00;99.90
10083;DHT22;5080;48.528;8.078;2023-06-10T07:41:09;24.00;99.90
10083;DHT22;5080;48.528;8.078;2023-06-10T07:43:36;23.90;99.90
10083;DHT22;5080;48.528;8.078;2023-06-10T07:46:03;23.90;99.90
10083;DHT22;5080;48.528;8.078;2023-06-10T07:48:31;24.10;99.90
10083;DHT22;5080;48.528;8.078;2023-06-10T07:50:57;24.30;99.90
10083;DHT22;5080;48.528;8.078;2023-06-10T07:53:24;24.40;99.90
10083;DHT22;5080;48.528;8.078;2023-06-10T07:55:53;24.50;99.90
10083;DHT22;5080;48.528;8.078;2023-06-10T07:58:20;24.70;99.90
10083;DHT22;5080;48.528;8.078;2023-06-10T08:00:47;24.80;99.90
10083;DHT22;5080;48.528;8.078;2023-06-10T08:03:14;24.70;99.90
10083;DHT22;5080;48.528;8.078;2023-06-10T08:05:41;24.80;99.90
10083;DHT22;5080;48.528;8.078;2023-06-10T08:08:08;24.90;99.90
10083;DHT22;5080;48.528;8.078;2023-06-10T08:10:35;25.10;99.90
10083;DHT22;5080;48.528;8.078;2023-06-10T08:13:03;24.90;99.90
10083;DHT22;5080;48.528;8.078;2023-06-10T08:15:30;24.90;99.90
10083;DHT22;5080;48.528;8.078;2023-06-10T08:17:57;25.00;99.90
10083;DHT22;5080;48.528;8.078;2023-06-10T08:20:24;25.20;99.90
10083;DHT22;5080;48.528;8.078;2023-06-10T08:22:51;25.20;99.90
10083;DHT22;5080;48.528;8.078;2023-06-10T08:25:18;25.20;99.90
10083;DHT22;5080;48.528;8.078;2023-06-10T08:27:47;25.20;99.90
10083;DHT22;5080;48.528;8.078;2023-06-10T08:30:15;25.30;99.90
10083;DHT22;5080;48.528;8.078;2023-06-10T08:32:42;25.20;99.90
10083;DHT22;5080;48.528;8.078;2023-06-10T08:35:09;25.30;99.90
10083;DHT22;5080;48.528;8.078;2023-06-10T08:37:36;25.70;99.90
10083;DHT22;5080;48.528;8.078;2023-06-10T08:40:04;25.80;99.90
10083;DHT22;5080;48.528;8.078;2023-06-10T08:42:35;25.90;99.90
10083;DHT22;5080;48.528;8.078;2023-06-10T08:45:07;25.90;99.90
10083;DHT22;5080;48.528;8.078;2023-06-10T08:47:42;26.10;99.90
10083;DHT22;5080;48.528;8.078;2023-06-10T08:50:11;26.30;99.90
10083;DHT22;5080;48.528;8.078;2023-06-10T08:52:42;26.30;99.90
10083;DHT22;5080;48.528;8.078;2023-06-10T08:55:12;26.30;99.90
10083;DHT22;5080;48.528;8.078;2023-06-10T08:57:41;26.40;99.90
10083;DHT22;5080;48.528;8.078;2023-06-10T09:00:11;26.20;99.90
10083;DHT22;5080;48.528;8.078;2023-06-10T09:02:40;26.50;99.90
10083;DHT22;5080;48.528;8.078;2023-06-10T09:05:08;26.60;99.90
10083;DHT22;5080;48.528;8.078;2023-06-10T09:07:36;26.80;99.90
10083;DHT22;5080;48.528;8.078;2023-06-10T09:10:04;26.90;99.90
10083;DHT22;5080;48.528;8.078;2023-06-10T09:12:32;27.10;99.90
10083;DHT22;5080;48.528;8.078;2023-06-10T09:14:59;27.40;99.90
10083;DHT22;5080;48.528;8.078;2023-06-10T09:17:27;27.60;99.90
10083;DHT22;5080;48.528;8.078;2023-06-10T09:19:55;27.60;99.90
10083;DHT22;5080;48.528;8.078;2023-06-10T09:22:22;27.60;99.90
10083;DHT22;5080;48.528;8.078;2023-06-10T09:24:49;27.40;99.90
10083;DHT22;5080;48.528;8.078;2023-06-10T09:27:16;27.40;99.90
10083;DHT22;5080;48.528;8.078;2023-06-10T09:29:47;27.70;99.90
10083;DHT22;5080;48.528;8.078;2023-06-10T09:32:14;27.90;99.90
10083;DHT22;5080;48.528;8.078;2023-06-10T09:34:41;28.00;99.90
10083;DHT22;5080;48.528;8.078;2023-06-10T09:37:11;28.20;99.90
10083;DHT22;5080;48.528;8.078;2023-06-10T09:39:39;28.30;99.90
10083;DHT22;5080;48.528;8.078;2023-06-10T09:42:15;28.60;99.90
10083;DHT22;5080;48.528;8.078;2023-06-10T09:44:49;28.90;99.90
10083;DHT22;5080;48.528;8.078;2023-06-10T09:47:19;28.80;99.90
10083;DHT22;5080;48.528;8.078;2023-06-10T09:49:46;28.70;99.90
10083;DHT22;5080;48.528;8.078;2023-06-10T09:52:21;28.60;99.90
10083;DHT22;5080;48.528;8.078;2023-06-10T09:54:48;28.80;99.90
10083;DHT22;5080;48.528;8.078;2023-06-10T09:57:17;28.80;99.90
10083;DHT22;5080;48.528;8.078;2023-06-10T09:59:44;28.80;99.90
10083;DHT22;5080;48.528;8.078;2023-06-10T10:02:14;28.60;99.90
10083;DHT22;5080;48.528;8.078;2023-06-10T10:04:41;28.20;99.90
10083;DHT22;5080;48.528;8.078;2023-06-10T10:07:08;28.10;99.90
10083;DHT22;5080;48.528;8.078;2023-06-10T10:09:37;28.40;99.90
10083;DHT22;5080;48.528;8.078;2023-06-10T10:12:09;28.80;99.90
10083;DHT22;5080;48.528;8.078;2023-06-10T10:14:37;28.90;99.90
10083;DHT22;5080;48.528;8.078;2023-06-10T10:17:09;29.00;99.90
10083;DHT22;5080;48.528;8.078;2023-06-10T10:19:40;29.00;99.90
10083;DHT22;5080;48.528;8.078;2023-06-10T10:22:13;29.30;99.90
10083;DHT22;5080;48.528;8.078;2023-06-10T10:24:48;29.70;99.90
10083;DHT22;5080;48.528;8.078;2023-06-10T10:27:18;30.00;99.90
10083;DHT22;5080;48.528;8.078;2023-06-10T10:29:48;30.00;99.90
10083;DHT22;5080;48.528;8.078;2023-06-10T10:32:18;30.20;99.90
10083;DHT22;5080;48.528;8.078;2023-06-10T10:34:50;30.30;99.90
10083;DHT22;5080;48.528;8.078;2023-06-10T10:37:20;30.70;99.90
10083;DHT22;5080;48.528;8.078;2023-06-10T10:39:48;31.00;99.90
10083;DHT22;5080;48.528;8.078;2023-06-10T10:42:16;31.20;99.90
10083;DHT22;5080;48.528;8.078;2023-06-10T10:44:43;31.20;99.90
10083;DHT22;5080;48.528;8.078;2023-06-10T10:47:11;31.30;99.90
10083;DHT22;5080;48.528;8.078;2023-06-10T10:49:39;31.40;99.90
10083;DHT22;5080;48.528;8.078;2023-06-10T10:52:11;31.50;99.90
10083;DHT22;5080;48.528;8.078;2023-06-10T10:54:43;31.50;99.90
10083;DHT22;5080;48.528;8.078;2023-06-10T10:57:13;31.60;99.90
10083;DHT22;5080;48.528;8.078;2023-06-10T10:59:54;31.40;99.90
10083;DHT22;5080;48.528;8.078;2023-06-10T11:02:36;31.00;99.90
10083;DHT22;5080;48.528;8.078;2023-06-10T11:05:05;30.70;99.90
10083;DHT22;5080;48.528;8.078;2023-06-10T11:07:33;30.50;99.90
10083;DHT22;5080;48.528;8.078;2023-06-10T11:10:01;30.50;99.90
10083;DHT22;5080;48.528;8.078;2023-06-10T11:12:57;30.50;99.90
10083;DHT22;5080;48.528;8.078;2023-06-10T11:15:25;30.90;99.90
10083;DHT22;5080;48.528;8.078;2023-06-10T11:18:12;31.00;99.90
10083;DHT22;5080;48.528;8.078;2023-06-10T11:21:01;30.60;99.90
10083;DHT22;5080;48.528;8.078;2023-06-10T11:23:34;30.40;99.90
10083;DHT22;5080;48.528;8.078;2023-06-10T11:26:21;30.60;99.90
10083;DHT22;5080;48.528;8.078;2023-06-10T11:29:04;30.80;99.90
10083;DHT22;5080;48.528;8.078;2023-06-10T11:31:33;31.00;99.90
10083;DHT22;5080;48.528;8.078;2023-06-10T11:34:05;31.10;99.90
10083;DHT22;5080;48.528;8.078;2023-06-10T11:36:33;31.30;99.90
10083;DHT22;5080;48.528;8.078;2023-06-10T11:39:02;31.50;99.90
10083;DHT22;5080;48.528;8.078;2023-06-10T11:41:30;31.70;99.90
10083;DHT22;5080;48.528;8.078;2023-06-10T11:44:03;31.80;99.90
10083;DHT22;5080;48.528;8.078;2023-06-10T11:46:31;31.90;99.90
10083;DHT22;5080;48.528;8.078;2023-06-10T11:48:58;31.60;99.90
10083;DHT22;5080;48.528;8.078;2023-06-10T11:51:26;31.60;99.90
10083;DHT22;5080;48.528;8.078;2023-06-10T11:53:54;31.50;99.90
10083;DHT22;5080;48.528;8.078;2023-06-10T11:56:22;31.40;99.90
10083;DHT22;5080;48.528;8.078;2023-06-10T11:58:52;31.50;99.90
10083;DHT22;5080;48.528;8.078;2023-06-10T12:01:23;31.60;99.90
10083;DHT22;5080;48.528;8.078;2023-06-10T12:03:57;31.70;99.90
10083;DHT22;5080;48.528;8.078;2023-06-10T12:06:24;31.90;99.10
10083;DHT22;5080;48.528;8.078;2023-06-10T12:08:51;32.10;99.90
10083;DHT22;5080;48.528;8.078;2023-06-10T12:11:18;32.40;99.90
10083;DHT22;5080;48.528;8.078;2023-06-10T12:13:47;32.60;99.90
10083;DHT22;5080;48.528;8.078;2023-06-10T12:16:15;32.50;98.30
10083;DHT22;5080;48.528;8.078;2023-06-10T12:18:44;32.30;97.70
10083;DHT22;5080;48.528;8.078;2023-06-10T12:21:18;32.00;97.70
10083;DHT22;5080;48.528;8.078;2023-06-10T12:24:06;31.70;98.40
10083;DHT22;5080;48.528;8.078;2023-06-10T12:26:41;31.60;99.10
10083;DHT22;5080;48.528;8.078;2023-06-10T12:29:17;31.70;99.50
10083;DHT22;5080;48.528;8.078;2023-06-10T12:31:56;31.80;98.30
10083;DHT22;5080;48.528;8.078;2023-06-10T12:34:33;31.90;98.00
10083;DHT22;5080;48.528;8.078;2023-06-10T12:37:01;31.80;99.80
10083;DHT22;5080;48.528;8.078;2023-06-10T12:39:30;31.80;98.70
10083;DHT22;5080;48.528;8.078;2023-06-10T12:41:57;31.80;99.00
10083;DHT22;5080;48.528;8.078;2023-06-10T12:44:34;32.00;98.50
10083;DHT22;5080;48.528;8.078;2023-06-10T12:47:07;32.00;97.90
10083;DHT22;5080;48.528;8.078;2023-06-10T12:49:37;32.10;98.00
10083;DHT22;5080;48.528;8.078;2023-06-10T12:52:04;32.20;98.30
10083;DHT22;5080;48.528;8.078;2023-06-10T12:54:31;32.40;98.10
10083;DHT22;5080;48.528;8.078;2023-06-10T12:56:58;32.50;97.80
10083;DHT22;5080;48.528;8.078;2023-06-10T12:59:25;32.60;97.20
10083;DHT22;5080;48.528;8.078;2023-06-10T13:01:53;32.50;96.80
10083;DHT22;5080;48.528;8.078;2023-06-10T13:04:20;32.70;96.60
10083;DHT22;5080;48.528;8.078;2023-06-10T13:06:48;32.80;97.00
10083;DHT22;5080;48.528;8.078;2023-06-10T13:09:16;32.90;97.10
10083;DHT22;5080;48.528;8.078;2023-06-10T13:11:43;33.10;96.80
10083;DHT22;5080;48.528;8.078;2023-06-10T13:14:10;33.10;96.70
10083;DHT22;5080;48.528;8.078;2023-06-10T13:16:37;33.00;96.20
10083;DHT22;5080;48.528;8.078;2023-06-10T13:19:05;32.90;95.50
10083;DHT22;5080;48.528;8.078;2023-06-10T13:21:32;33.00;95.80
10083;DHT22;5080;48.528;8.078;2023-06-10T13:24:01;32.80;96.30
10083;DHT22;5080;48.528;8.078;2023-06-10T13:26:27;32.60;96.10
10083;DHT22;5080;48.528;8.078;2023-06-10T13:28:54;32.20;95.80
10083;DHT22;5080;48.528;8.078;2023-06-10T13:31:21;31.90;96.10
10083;DHT22;5080;48.528;8.078;2023-06-10T13:33:48;31.80;95.60
10083;DHT22;5080;48.528;8.078;2023-06-10T13:36:15;31.70;94.80
10083;DHT22;5080;48.528;8.078;2023-06-10T13:38:42;31.40;94.60
10083;DHT22;5080;48.528;8.078;2023-06-10T13:41:10;31.40;95.00
10083;DHT22;5080;48.528;8.078;2023-06-10T13:43:38;31.40;95.80
10083;DHT22;5080;48.528;8.078;2023-06-10T13:46:05;31.30;95.50
10083;DHT22;5080;48.528;8.078;2023-06-10T13:48:32;31.60;95.40
10083;DHT22;5080;48.528;8.078;2023-06-10T13:50:59;31.80;95.50
10083;DHT22;5080;48.528;8.078;2023-06-10T13:53:26;32.00;96.10
10083;DHT22;5080;48.528;8.078;2023-06-10T13:55:53;32.30;96.40
10083;DHT22;5080;48.528;8.078;2023-06-10T13:58:21;32.50;95.50
10083;DHT22;5080;48.528;8.078;2023-06-10T14:00:49;32.60;95.30
10083;DHT22;5080;48.528;8.078;2023-06-10T14:03:16;32.60;94.00
10083;DHT22;5080;48.528;8.078;2023-06-10T14:05:42;32.70;94.40
10083;DHT22;5080;48.528;8.078;2023-06-10T14:08:09;32.80;94.20
10083;DHT22;5080;48.528;8.078;2023-06-10T14:10:37;32.90;94.00
10083;DHT22;5080;48.528;8.078;2023-06-10T14:13:04;32.70;94.20
10083;DHT22;5080;48.528;8.078;2023-06-10T14:15:32;32.30;94.30
10083;DHT22;5080;48.528;8.078;2023-06-10T14:18:00;32.10;94.90
10083;DHT22;5080;48.528;8.078;2023-06-10T14:20:27;32.20;95.00
10083;DHT22;5080;48.528;8.078;2023-06-10T14:22:57;32.10;94.40
10083;DHT22;5080;48.528;8.078;2023-06-10T14:25:24;32.00;94.40
10083;DHT22;5080;48.528;8.078;2023-06-10T14:27:51;31.70;94.40
10083;DHT22;5080;48.528;8.078;2023-06-10T14:30:18;31.60;94.10
10083;DHT22;5080;48.528;8.078;2023-06-10T14:32:47;31.40;94.40
10083;DHT22;5080;48.528;8.078;2023-06-10T14:35:14;31.20;94.50
10083;DHT22;5080;48.528;8.078;2023-06-10T14:37:41;31.00;94.80
10083;DHT22;5080;48.528;8.078;2023-06-10T14:40:08;31.00;95.10
10083;DHT22;5080;48.528;8.078;2023-06-10T14:42:35;30.90;95.30
10083;DHT22;5080;48.528;8.078;2023-06-10T14:45:03;30.70;95.60
10083;DHT22;5080;48.528;8.078;2023-06-10T14:47:31;30.50;95.70
10083;DHT22;5080;48.528;8.078;2023-06-10T14:49:59;30.50;95.90
10083;DHT22;5080;48.528;8.078;2023-06-10T14:52:26;30.60;96.20
10083;DHT22;5080;48.528;8.078;2023-06-10T14:54:53;30.70;96.10
10083;DHT22;5080;48.528;8.078;2023-06-10T14:57:20;30.90;96.30
10083;DHT22;5080;48.528;8.078;2023-06-10T14:59:47;31.10;96.20
10083;DHT22;5080;48.528;8.078;2023-06-10T15:02:14;31.20;95.30
10083;DHT22;5080;48.528;8.078;2023-06-10T15:04:41;31.20;95.00
10083;DHT22;5080;48.528;8.078;2023-06-10T15:07:09;31.30;95.10
10083;DHT22;5080;48.528;8.078;2023-06-10T15:09:36;31.50;94.90
10083;DHT22;5080;48.528;8.078;2023-06-10T15:12:03;31.60;94.70
10083;DHT22;5080;48.528;8.078;2023-06-10T15:14:31;31.60;94.60
10083;DHT22;5080;48.528;8.078;2023-06-10T15:16:58;31.80;95.00
10083;DHT22;5080;48.528;8.078;2023-06-10T15:19:25;31.90;95.20
10083;DHT22;5080;48.528;8.078;2023-06-10T15:21:52;32.00;95.40
10083;DHT22;5080;48.528;8.078;2023-06-10T15:24:20;31.90;94.80
10083;DHT22;5080;48.528;8.078;2023-06-10T15:26:47;31.70;94.60
10083;DHT22;5080;48.528;8.078;2023-06-10T15:29:14;31.40;94.90
10083;DHT22;5080;48.528;8.078;2023-06-10T15:31:41;31.30;95.00
10083;DHT22;5080;48.528;8.078;2023-06-10T15:34:08;31.10;94.60
10083;DHT22;5080;48.528;8.078;2023-06-10T15:36:35;31.00;95.10
10083;DHT22;5080;48.528;8.078;2023-06-10T15:39:04;30.90;95.30
10083;DHT22;5080;48.528;8.078;2023-06-10T15:41:33;30.80;95.10
10083;DHT22;5080;48.528;8.078;2023-06-10T15:44:00;30.60;95.20
10083;DHT22;5080;48.528;8.078;2023-06-10T15:46:27;30.60;95.10
10083;DHT22;5080;48.528;8.078;2023-06-10T15:48:54;30.60;94.90
10083;DHT22;5080;48.528;8.078;2023-06-10T15:51:22;30.60;95.20